createdAt,value
2022-12-26T00:04:48.129Z,27.90
2022-12-26T00:25:31.262Z,35.30
2022-12-26T00:36:04.476Z,30.60
2022-12-26T00:46:32.074Z,25.00
2022-12-26T00:56:59.625Z,28.10
2022-12-26T01:07:27.219Z,30.10
2022-12-26T01:17:54.915Z,34.50
2022-12-26T01:28:23.117Z,30.90
2022-12-26T01:38:50.819Z,29.50
2022-12-26T01:49:22.380Z,34.80
2022-12-26T01:59:51.663Z,26.00
2022-12-26T02:10:23.418Z,32.10
2022-12-26T02:21:00.507Z,27.70
2022-12-26T02:31:35.096Z,36.40
2022-12-26T02:42:11.857Z,38.50
2022-12-26T02:53:17.378Z,33.20
2022-12-26T03:04:08.307Z,41.20
2022-12-26T03:14:42.838Z,40.80
2022-12-26T03:25:33.543Z,32.50
2022-12-26T03:36:01.778Z,37.20
2022-12-26T03:47:01.883Z,37.60
2022-12-26T03:57:56.082Z,46.70
2022-12-26T04:08:54.409Z,48.50
2022-12-26T04:19:33.515Z,43.00
2022-12-26T04:30:19.704Z,56.60
2022-12-26T04:41:08.368Z,38.30
2022-12-26T04:51:36.269Z,29.60
2022-12-26T05:02:26.813Z,24.30
2022-12-26T05:12:55.403Z,19.70
2022-12-26T05:23:42.682Z,15.70
2022-12-26T05:34:12.882Z,14.00
2022-12-26T05:44:40.652Z,14.20
2022-12-26T05:55:09.213Z,16.70
2022-12-26T06:05:36.902Z,24.00
2022-12-26T06:16:09.629Z,18.00
2022-12-26T06:26:37.923Z,23.30
2022-12-26T06:37:05.493Z,21.70
2022-12-26T06:47:33.120Z,19.40
2022-12-26T06:58:00.784Z,24.00
2022-12-26T07:08:28.401Z,20.00
2022-12-26T07:18:57.651Z,18.90
2022-12-26T07:29:25.563Z,15.30
2022-12-26T07:39:58.738Z,21.30
2022-12-26T07:50:28.029Z,19.60
2022-12-26T08:00:55.666Z,18.10
2022-12-26T08:21:51.568Z,13.90
2022-12-26T08:32:19.169Z,17.90
2022-12-26T08:43:11.818Z,18.30
2022-12-26T08:53:36.943Z,15.40
2022-12-26T09:04:07.873Z,18.00
2022-12-26T09:14:35.487Z,19.10
2022-12-26T09:25:03.123Z,14.40
2022-12-26T09:35:30.744Z,19.00
2022-12-26T09:46:07.497Z,15.60
2022-12-26T10:07:33.124Z,18.10
2022-12-26T10:18:09.079Z,20.80
2022-12-26T10:28:40.904Z,18.60
2022-12-26T10:39:18.839Z,20.60
2022-12-26T10:49:48.936Z,18.90
2022-12-26T11:00:22.564Z,19.20
2022-12-26T11:11:05.813Z,23.00
2022-12-26T11:21:34.883Z,19.80
2022-12-26T11:32:04.389Z,16.40
2022-12-26T11:42:32.102Z,15.60
2022-12-26T11:53:16.618Z,15.70
2022-12-26T12:03:49.756Z,16.60
2022-12-26T12:14:35.706Z,13.30
2022-12-26T12:25:28.627Z,14.30
2022-12-26T12:36:04.872Z,13.00
2022-12-26T12:46:41.475Z,12.00
2022-12-26T12:57:17.367Z,12.90
2022-12-26T13:07:49.508Z,11.10
2022-12-26T13:18:23.040Z,12.00
2022-12-26T13:29:00.494Z,12.40
2022-12-26T13:39:43.240Z,11.50
2022-12-26T13:50:54.930Z,14.40
2022-12-26T14:01:40.349Z,15.40
2022-12-26T14:12:23.077Z,13.40
2022-12-26T14:23:01.378Z,15.60
2022-12-26T14:33:34.250Z,18.70
2022-12-26T14:44:16.794Z,17.40
2022-12-26T14:54:51.063Z,16.60
2022-12-26T15:05:23.937Z,14.10
2022-12-26T15:16:08.992Z,14.30
2022-12-26T15:27:22.048Z,16.80
2022-12-26T15:38:12.851Z,17.90
2022-12-26T15:48:55.011Z,16.10
2022-12-26T15:59:54.857Z,15.80
2022-12-26T16:10:34.887Z,17.30
2022-12-26T16:21:23.576Z,21.60
2022-12-26T16:31:51.234Z,21.90
2022-12-26T16:42:32.153Z,18.80
2022-12-26T16:53:16.103Z,18.00
2022-12-26T17:03:52.759Z,27.40
2022-12-26T17:14:23.722Z,18.30
2022-12-26T17:24:52.950Z,12.30
2022-12-26T17:35:25.640Z,15.20
2022-12-26T17:45:53.574Z,12.90
2022-12-26T17:56:24.350Z,16.10
2022-12-26T18:06:51.982Z,14.00
2022-12-26T18:17:19.711Z,15.10
2022-12-26T18:27:47.977Z,18.40
2022-12-26T18:38:18.036Z,14.40
2022-12-26T18:48:45.723Z,18.90
2022-12-26T18:59:13.855Z,19.70
2022-12-26T19:09:45.484Z,20.90
2022-12-26T19:20:19.993Z,21.90
2022-12-26T19:30:47.680Z,17.30
2022-12-26T19:41:18.525Z,17.00
2022-12-26T19:51:47.284Z,20.70
2022-12-26T20:02:15.331Z,18.40
2022-12-26T20:23:09.203Z,17.70
2022-12-26T20:33:38.991Z,18.20
2022-12-26T20:44:06.847Z,17.80
2022-12-26T20:54:34.639Z,15.90
2022-12-26T21:05:02.147Z,15.00
2022-12-26T21:15:29.710Z,16.20
2022-12-26T21:26:00.391Z,13.20
2022-12-26T21:36:29.426Z,13.60
2022-12-26T21:46:56.931Z,15.30
2022-12-26T21:57:25.865Z,13.70
2022-12-26T22:07:57.687Z,16.00
2022-12-26T22:18:25.153Z,15.10
2022-12-26T22:28:53.380Z,16.10
2022-12-26T22:39:20.870Z,14.20
2022-12-26T22:49:48.529Z,16.90
2022-12-26T23:00:17.242Z,19.60
2022-12-26T23:10:46.255Z,19.30
2022-12-26T23:21:42.362Z,13.70
2022-12-26T23:32:11.589Z,13.50
2022-12-26T23:42:39.675Z,13.40
2022-12-26T23:53:07.817Z,14.50
